Ana Sayfa
METAR-TAF:

METAR-TAF

Havaalanları :

Lancaster Airport

Lancaster, Teksas, Amerika Birleşik Devletleri

Enlem: 32-34-45N, Boylam: 096-43-08W, yükseklik: 153 m

Güncel hava durumu gözlemi

Rapor saat 19:15 UTC de 15 dakika önce yapıldı.
Rüzgar batıdan 15 kt ve 20 kt'a kadar ani rüzgarlar
Sıcaklık 18°C
Nem 42%
Basınç 1008 hPa
Görüş mesafesi: 16.1 km
Açık gökyüzü

METAR: KLNC 241915Z AUTO 28015G20KT 10SM CLR 18/05 A2978 RMK AO2 T01760053

Saat: 13:30 (19:30 UTC)


TAF: eksik

4.000'den fazla havaalanı için hava durumu gözlemleri ve tahminleri (METAR ve TAF raporları).

Kullanılabilir istasyonlar harita üzerinde sarı ve kırmızı noktalarla gösterilir.

İstasyonun adını görmek için fareyi noktanın üzerinde gezdirin.

Sonrasında hava gözlem ve tahminlerini görmek için tıklayın.

Haritayı değiştirmek için: yaklaştırmak için siyah artı işaretli yeşil düğmeye ve uzaklaştırmak için de eksi işaretli düğmeye hızla tıklayın; bitişik haritalar için yeşil okları kullanın.


METAR-TAF: